sensor_id;sensor_type;location;lat;lon;timestamp;temperature;humidity
2611;DHT22;5612;51.134;17.058;2023-12-22T00:02:06;5.50;1.00
2611;DHT22;5612;51.134;17.058;2023-12-22T00:04:34;5.50;99.90
2611;DHT22;5612;51.134;17.058;2023-12-22T00:07:03;5.60;1.60
2611;DHT22;5612;51.134;17.058;2023-12-22T00:09:32;5.60;99.90
2611;DHT22;5612;51.134;17.058;2023-12-22T00:12:01;5.60;99.90
2611;DHT22;5612;51.134;17.058;2023-12-22T00:14:31;5.50;99.90
2611;DHT22;5612;51.134;17.058;2023-12-22T00:17:00;5.50;99.90
2611;DHT22;5612;51.134;17.058;2023-12-22T00:19:28;5.40;99.90
2611;DHT22;5612;51.134;17.058;2023-12-22T00:21:57;5.40;99.90
2611;DHT22;5612;51.134;17.058;2023-12-22T00:24:26;5.30;1.00
2611;DHT22;5612;51.134;17.058;2023-12-22T00:26:55;5.20;1.00
2611;DHT22;5612;51.134;17.058;2023-12-22T00:29:24;5.20;1.00
2611;DHT22;5612;51.134;17.058;2023-12-22T00:31:54;5.20;99.90
2611;DHT22;5612;51.134;17.058;2023-12-22T00:34:22;5.20;99.90
2611;DHT22;5612;51.134;17.058;2023-12-22T00:36:51;5.20;99.90
2611;DHT22;5612;51.134;17.058;2023-12-22T00:39:20;5.20;99.90
2611;DHT22;5612;51.134;17.058;2023-12-22T00:41:49;5.20;77.00
2611;DHT22;5612;51.134;17.058;2023-12-22T00:44:18;5.20;99.90
2611;DHT22;5612;51.134;17.058;2023-12-22T00:46:47;5.20;1.00
2611;DHT22;5612;51.134;17.058;2023-12-22T00:49:17;5.20;99.90
2611;DHT22;5612;51.134;17.058;2023-12-22T00:51:46;5.10;99.90
2611;DHT22;5612;51.134;17.058;2023-12-22T00:54:15;5.10;1.00
2611;DHT22;5612;51.134;17.058;2023-12-22T00:56:44;5.10;99.90
2611;DHT22;5612;51.134;17.058;2023-12-22T00:59:12;5.10;1.00
2611;DHT22;5612;51.134;17.058;2023-12-22T01:01:41;5.10;99.90
2611;DHT22;5612;51.134;17.058;2023-12-22T01:04:11;5.00;99.90
2611;DHT22;5612;51.134;17.058;2023-12-22T01:06:41;5.00;99.90
2611;DHT22;5612;51.134;17.058;2023-12-22T01:09:10;4.90;99.90
2611;DHT22;5612;51.134;17.058;2023-12-22T01:11:39;4.90;99.90
2611;DHT22;5612;51.134;17.058;2023-12-22T01:14:07;4.90;1.00
2611;DHT22;5612;51.134;17.058;2023-12-22T01:16:36;4.80;99.90
2611;DHT22;5612;51.134;17.058;2023-12-22T01:19:05;4.80;99.90
2611;DHT22;5612;51.134;17.058;2023-12-22T01:21:34;4.70;1.00
2611;DHT22;5612;51.134;17.058;2023-12-22T01:24:04;4.70;99.90
2611;DHT22;5612;51.134;17.058;2023-12-22T01:26:33;4.70;99.90
2611;DHT22;5612;51.134;17.058;2023-12-22T01:29:01;4.70;99.90
2611;DHT22;5612;51.134;17.058;2023-12-22T01:31:30;4.80;99.90
2611;DHT22;5612;51.134;17.058;2023-12-22T01:33:59;4.80;1.00
2611;DHT22;5612;51.134;17.058;2023-12-22T01:36:28;4.70;1.00
2611;DHT22;5612;51.134;17.058;2023-12-22T01:38:57;4.60;1.00
2611;DHT22;5612;51.134;17.058;2023-12-22T01:41:27;4.60;99.90
2611;DHT22;5612;51.134;17.058;2023-12-22T01:43:56;4.60;1.00
2611;DHT22;5612;51.134;17.058;2023-12-22T01:46:25;4.60;99.90
2611;DHT22;5612;51.134;17.058;2023-12-22T01:48:53;4.50;99.90
2611;DHT22;5612;51.134;17.058;2023-12-22T01:51:23;4.50;1.00
2611;DHT22;5612;51.134;17.058;2023-12-22T01:53:51;4.50;99.10
2611;DHT22;5612;51.134;17.058;2023-12-22T01:56:21;4.50;99.90
2611;DHT22;5612;51.134;17.058;2023-12-22T01:58:53;4.50;69.20
2611;DHT22;5612;51.134;17.058;2023-12-22T02:01:24;4.50;1.00
2611;DHT22;5612;51.134;17.058;2023-12-22T02:03:54;4.50;74.40
2611;DHT22;5612;51.134;17.058;2023-12-22T02:06:23;4.50;99.90
2611;DHT22;5612;51.134;17.058;2023-12-22T02:08:53;4.50;58.50
2611;DHT22;5612;51.134;17.058;2023-12-22T02:11:22;4.40;1.00
2611;DHT22;5612;51.134;17.058;2023-12-22T02:13:52;4.50;1.00
2611;DHT22;5612;51.134;17.058;2023-12-22T02:16:26;4.50;99.90
2611;DHT22;5612;51.134;17.058;2023-12-22T02:18:56;4.60;99.90
2611;DHT22;5612;51.134;17.058;2023-12-22T02:21:27;4.60;99.90
2611;DHT22;5612;51.134;17.058;2023-12-22T02:23:57;4.60;99.90
2611;DHT22;5612;51.134;17.058;2023-12-22T02:26:32;4.60;99.90
2611;DHT22;5612;51.134;17.058;2023-12-22T02:29:02;4.60;99.90
2611;DHT22;5612;51.134;17.058;2023-12-22T02:31:37;4.40;1.00
2611;DHT22;5612;51.134;17.058;2023-12-22T02:34:12;4.20;1.00
2611;DHT22;5612;51.134;17.058;2023-12-22T02:36:42;4.10;1.00
2611;DHT22;5612;51.134;17.058;2023-12-22T02:39:14;4.10;1.00
2611;DHT22;5612;51.134;17.058;2023-12-22T02:41:43;4.00;99.90
2611;DHT22;5612;51.134;17.058;2023-12-22T02:44:12;3.90;99.90
2611;DHT22;5612;51.134;17.058;2023-12-22T02:46:41;3.70;1.00
2611;DHT22;5612;51.134;17.058;2023-12-22T02:49:11;3.60;1.00
2611;DHT22;5612;51.134;17.058;2023-12-22T02:51:41;3.50;99.90
2611;DHT22;5612;51.134;17.058;2023-12-22T02:54:10;3.40;99.90
2611;DHT22;5612;51.134;17.058;2023-12-22T02:56:40;3.30;99.90
2611;DHT22;5612;51.134;17.058;2023-12-22T02:59:10;3.20;99.90
2611;DHT22;5612;51.134;17.058;2023-12-22T03:01:38;3.20;99.90
2611;DHT22;5612;51.134;17.058;2023-12-22T03:04:07;3.20;99.90
2611;DHT22;5612;51.134;17.058;2023-12-22T03:06:36;3.30;99.90
2611;DHT22;5612;51.134;17.058;2023-12-22T03:09:05;3.30;99.90
2611;DHT22;5612;51.134;17.058;2023-12-22T03:11:33;3.30;1.00
2611;DHT22;5612;51.134;17.058;2023-12-22T03:14:03;3.20;1.00
2611;DHT22;5612;51.134;17.058;2023-12-22T03:16:32;3.30;99.90
2611;DHT22;5612;51.134;17.058;2023-12-22T03:19:01;3.40;99.90
2611;DHT22;5612;51.134;17.058;2023-12-22T03:21:30;3.40;99.90
2611;DHT22;5612;51.134;17.058;2023-12-22T03:23:58;3.50;99.90
2611;DHT22;5612;51.134;17.058;2023-12-22T03:26:28;3.50;99.90
2611;DHT22;5612;51.134;17.058;2023-12-22T03:28:56;3.50;99.90
2611;DHT22;5612;51.134;17.058;2023-12-22T03:31:27;3.50;99.90
2611;DHT22;5612;51.134;17.058;2023-12-22T03:33:55;3.50;99.90
2611;DHT22;5612;51.134;17.058;2023-12-22T03:36:24;3.40;99.90
2611;DHT22;5612;51.134;17.058;2023-12-22T03:38:53;3.40;1.00
2611;DHT22;5612;51.134;17.058;2023-12-22T03:41:22;3.30;1.00
2611;DHT22;5612;51.134;17.058;2023-12-22T03:43:50;3.20;1.00
2611;DHT22;5612;51.134;17.058;2023-12-22T03:46:19;3.10;99.90
2611;DHT22;5612;51.134;17.058;2023-12-22T03:48:49;3.10;99.90
2611;DHT22;5612;51.134;17.058;2023-12-22T03:51:18;3.10;1.00
2611;DHT22;5612;51.134;17.058;2023-12-22T03:53:47;3.10;1.00
2611;DHT22;5612;51.134;17.058;2023-12-22T03:56:16;3.10;1.00
2611;DHT22;5612;51.134;17.058;2023-12-22T03:58:46;3.10;99.90
2611;DHT22;5612;51.134;17.058;2023-12-22T04:01:15;3.10;26.00
2611;DHT22;5612;51.134;17.058;2023-12-22T04:03:44;3.20;99.90
2611;DHT22;5612;51.134;17.058;2023-12-22T04:06:14;3.20;99.90
2611;DHT22;5612;51.134;17.058;2023-12-22T04:08:43;3.30;99.90
2611;DHT22;5612;51.134;17.058;2023-12-22T04:11:11;3.40;1.00
2611;DHT22;5612;51.134;17.058;2023-12-22T04:13:40;3.50;1.00
2611;DHT22;5612;51.134;17.058;2023-12-22T04:16:09;3.50;1.00
2611;DHT22;5612;51.134;17.058;2023-12-22T04:18:37;3.50;1.00
2611;DHT22;5612;51.134;17.058;2023-12-22T04:21:06;3.50;1.00
2611;DHT22;5612;51.134;17.058;2023-12-22T04:23:37;3.50;1.00
2611;DHT22;5612;51.134;17.058;2023-12-22T04:26:05;3.50;1.00
2611;DHT22;5612;51.134;17.058;2023-12-22T04:28:34;3.50;1.00
2611;DHT22;5612;51.134;17.058;2023-12-22T04:31:03;3.50;1.00
2611;DHT22;5612;51.134;17.058;2023-12-22T04:33:33;3.50;1.00
2611;DHT22;5612;51.134;17.058;2023-12-22T04:36:02;3.50;99.90
2611;DHT22;5612;51.134;17.058;2023-12-22T04:38:31;3.50;1.00
2611;DHT22;5612;51.134;17.058;2023-12-22T04:41:02;3.40;99.90
2611;DHT22;5612;51.134;17.058;2023-12-22T04:43:30;3.40;99.90
2611;DHT22;5612;51.134;17.058;2023-12-22T04:45:59;3.40;99.90
2611;DHT22;5612;51.134;17.058;2023-12-22T04:48:28;3.40;99.90
2611;DHT22;5612;51.134;17.058;2023-12-22T04:50:57;3.50;99.90
2611;DHT22;5612;51.134;17.058;2023-12-22T04:53:25;3.40;99.90
2611;DHT22;5612;51.134;17.058;2023-12-22T04:55:54;3.50;99.90
2611;DHT22;5612;51.134;17.058;2023-12-22T04:58:25;3.50;99.90
2611;DHT22;5612;51.134;17.058;2023-12-22T05:00:53;3.50;99.90
2611;DHT22;5612;51.134;17.058;2023-12-22T05:03:22;3.50;99.90
2611;DHT22;5612;51.134;17.058;2023-12-22T05:05:54;3.50;99.90
2611;DHT22;5612;51.134;17.058;2023-12-22T05:08:23;3.50;99.90
2611;DHT22;5612;51.134;17.058;2023-12-22T05:10:51;3.50;99.90
2611;DHT22;5612;51.134;17.058;2023-12-22T05:13:21;3.50;99.90
2611;DHT22;5612;51.134;17.058;2023-12-22T05:15:52;3.50;99.90
2611;DHT22;5612;51.134;17.058;2023-12-22T05:18:21;3.50;99.90
2611;DHT22;5612;51.134;17.058;2023-12-22T05:20:49;3.60;99.90
2611;DHT22;5612;51.134;17.058;2023-12-22T05:23:20;3.60;99.90
2611;DHT22;5612;51.134;17.058;2023-12-22T05:25:48;3.50;99.90
2611;DHT22;5612;51.134;17.058;2023-12-22T05:28:17;3.50;99.90
2611;DHT22;5612;51.134;17.058;2023-12-22T05:30:46;3.60;99.90
2611;DHT22;5612;51.134;17.058;2023-12-22T05:33:17;3.50;99.90
2611;DHT22;5612;51.134;17.058;2023-12-22T05:35:45;3.50;99.90
2611;DHT22;5612;51.134;17.058;2023-12-22T05:38:14;3.50;99.90
2611;DHT22;5612;51.134;17.058;2023-12-22T05:40:43;3.50;99.90
2611;DHT22;5612;51.134;17.058;2023-12-22T05:43:12;3.50;99.90
2611;DHT22;5612;51.134;17.058;2023-12-22T05:45:41;3.50;99.90
2611;DHT22;5612;51.134;17.058;2023-12-22T05:48:10;3.50;99.90
2611;DHT22;5612;51.134;17.058;2023-12-22T05:50:41;3.50;99.90
2611;DHT22;5612;51.134;17.058;2023-12-22T05:53:09;3.60;99.90
2611;DHT22;5612;51.134;17.058;2023-12-22T05:55:39;3.50;99.90
2611;DHT22;5612;51.134;17.058;2023-12-22T05:58:07;3.40;99.90
2611;DHT22;5612;51.134;17.058;2023-12-22T06:00:36;3.50;99.90
2611;DHT22;5612;51.134;17.058;2023-12-22T06:03:05;3.50;99.90
2611;DHT22;5612;51.134;17.058;2023-12-22T06:05:34;3.50;99.90
2611;DHT22;5612;51.134;17.058;2023-12-22T06:08:05;3.50;99.90
2611;DHT22;5612;51.134;17.058;2023-12-22T06:10:33;3.40;99.90
2611;DHT22;5612;51.134;17.058;2023-12-22T06:13:03;3.50;99.90
2611;DHT22;5612;51.134;17.058;2023-12-22T06:15:32;3.50;99.90
2611;DHT22;5612;51.134;17.058;2023-12-22T06:18:04;3.50;99.90
2611;DHT22;5612;51.134;17.058;2023-12-22T06:20:33;3.40;99.90
2611;DHT22;5612;51.134;17.058;2023-12-22T06:23:03;3.40;99.90
2611;DHT22;5612;51.134;17.058;2023-12-22T06:25:33;3.50;99.90
2611;DHT22;5612;51.134;17.058;2023-12-22T06:28:02;3.40;1.00
2611;DHT22;5612;51.134;17.058;2023-12-22T06:30:31;3.40;1.00
2611;DHT22;5612;51.134;17.058;2023-12-22T06:33:00;3.40;1.00
2611;DHT22;5612;51.134;17.058;2023-12-22T06:35:29;3.30;1.00
2611;DHT22;5612;51.134;17.058;2023-12-22T06:38:03;3.30;1.00
2611;DHT22;5612;51.134;17.058;2023-12-22T06:40:34;3.30;1.00
2611;DHT22;5612;51.134;17.058;2023-12-22T06:43:03;3.20;99.90
2611;DHT22;5612;51.134;17.058;2023-12-22T06:45:32;3.20;99.90
2611;DHT22;5612;51.134;17.058;2023-12-22T06:48:01;3.30;99.90
2611;DHT22;5612;51.134;17.058;2023-12-22T06:50:30;3.30;99.90
2611;DHT22;5612;51.134;17.058;2023-12-22T06:52:59;3.30;99.90
2611;DHT22;5612;51.134;17.058;2023-12-22T06:55:41;3.20;99.90
2611;DHT22;5612;51.134;17.058;2023-12-22T06:58:10;3.20;1.00
2611;DHT22;5612;51.134;17.058;2023-12-22T07:00:41;3.20;99.90
2611;DHT22;5612;51.134;17.058;2023-12-22T07:03:09;3.20;1.00
2611;DHT22;5612;51.134;17.058;2023-12-22T07:05:40;3.30;99.90
2611;DHT22;5612;51.134;17.058;2023-12-22T07:08:09;3.30;46.20
2611;DHT22;5612;51.134;17.058;2023-12-22T07:10:37;3.30;89.80
2611;DHT22;5612;51.134;17.058;2023-12-22T07:13:07;3.30;99.90
2611;DHT22;5612;51.134;17.058;2023-12-22T07:15:36;3.30;1.00
2611;DHT22;5612;51.134;17.058;2023-12-22T07:18:05;3.30;1.00
2611;DHT22;5612;51.134;17.058;2023-12-22T07:20:34;3.20;99.90
2611;DHT22;5612;51.134;17.058;2023-12-22T07:23:03;3.30;99.90
2611;DHT22;5612;51.134;17.058;2023-12-22T07:25:36;3.30;1.00
2611;DHT22;5612;51.134;17.058;2023-12-22T07:28:07;3.40;1.00
2611;DHT22;5612;51.134;17.058;2023-12-22T07:30:41;3.50;1.00
2611;DHT22;5612;51.134;17.058;2023-12-22T07:33:10;3.60;1.00
2611;DHT22;5612;51.134;17.058;2023-12-22T07:35:39;3.70;99.90
2611;DHT22;5612;51.134;17.058;2023-12-22T07:38:10;3.70;1.00
2611;DHT22;5612;51.134;17.058;2023-12-22T07:40:38;3.70;99.90
2611;DHT22;5612;51.134;17.058;2023-12-22T07:43:09;3.50;1.00
2611;DHT22;5612;51.134;17.058;2023-12-22T07:45:37;3.50;99.90
2611;DHT22;5612;51.134;17.058;2023-12-22T07:48:06;3.50;1.00
2611;DHT22;5612;51.134;17.058;2023-12-22T07:50:35;3.50;57.40
2611;DHT22;5612;51.134;17.058;2023-12-22T07:53:04;3.40;99.90
2611;DHT22;5612;51.134;17.058;2023-12-22T07:55:35;3.50;99.90
2611;DHT22;5612;51.134;17.058;2023-12-22T07:58:05;3.50;99.90
2611;DHT22;5612;51.134;17.058;2023-12-22T08:00:36;3.50;1.00
2611;DHT22;5612;51.134;17.058;2023-12-22T08:03:06;3.60;41.10
2611;DHT22;5612;51.134;17.058;2023-12-22T08:05:34;3.60;99.90
2611;DHT22;5612;51.134;17.058;2023-12-22T08:08:03;3.60;99.90
2611;DHT22;5612;51.134;17.058;2023-12-22T08:10:32;3.60;1.00
2611;DHT22;5612;51.134;17.058;2023-12-22T08:13:01;3.60;99.90
2611;DHT22;5612;51.134;17.058;2023-12-22T08:15:29;3.70;1.00
2611;DHT22;5612;51.134;17.058;2023-12-22T08:18:05;3.70;99.90
2611;DHT22;5612;51.134;17.058;2023-12-22T08:20:34;3.80;99.90
2611;DHT22;5612;51.134;17.058;2023-12-22T08:23:08;3.80;99.90
2611;DHT22;5612;51.134;17.058;2023-12-22T08:25:38;3.80;99.90
2611;DHT22;5612;51.134;17.058;2023-12-22T08:28:11;3.90;99.90
2611;DHT22;5612;51.134;17.058;2023-12-22T08:30:40;3.90;99.90
2611;DHT22;5612;51.134;17.058;2023-12-22T08:33:11;3.80;99.90
2611;DHT22;5612;51.134;17.058;2023-12-22T08:35:40;3.80;1.00
2611;DHT22;5612;51.134;17.058;2023-12-22T08:38:09;4.00;1.00
2611;DHT22;5612;51.134;17.058;2023-12-22T08:40:41;4.30;1.00
2611;DHT22;5612;51.134;17.058;2023-12-22T08:43:09;4.70;99.90
2611;DHT22;5612;51.134;17.058;2023-12-22T08:45:38;4.70;99.90
2611;DHT22;5612;51.134;17.058;2023-12-22T08:48:07;4.50;99.90
2611;DHT22;5612;51.134;17.058;2023-12-22T08:50:37;4.40;99.90
2611;DHT22;5612;51.134;17.058;2023-12-22T08:53:06;4.30;99.90
2611;DHT22;5612;51.134;17.058;2023-12-22T08:55:35;4.10;99.90
2611;DHT22;5612;51.134;17.058;2023-12-22T08:58:04;4.10;99.90
2611;DHT22;5612;51.134;17.058;2023-12-22T09:00:33;4.10;99.90
2611;DHT22;5612;51.134;17.058;2023-12-22T09:03:02;4.10;99.90
2611;DHT22;5612;51.134;17.058;2023-12-22T09:05:31;4.00;99.90
2611;DHT22;5612;51.134;17.058;2023-12-22T09:08:03;4.00;99.90
2611;DHT22;5612;51.134;17.058;2023-12-22T09:10:33;4.00;99.90
2611;DHT22;5612;51.134;17.058;2023-12-22T09:13:03;4.00;99.90
2611;DHT22;5612;51.134;17.058;2023-12-22T09:15:31;3.80;1.00
2611;DHT22;5612;51.134;17.058;2023-12-22T09:18:00;3.80;1.00
2611;DHT22;5612;51.134;17.058;2023-12-22T09:20:30;3.70;1.00
2611;DHT22;5612;51.134;17.058;2023-12-22T09:22:58;4.60;99.90
2611;DHT22;5612;51.134;17.058;2023-12-22T09:25:29;5.80;99.90
2611;DHT22;5612;51.134;17.058;2023-12-22T09:27:57;6.40;79.60
2611;DHT22;5612;51.134;17.058;2023-12-22T09:30:26;6.70;40.20
2611;DHT22;5612;51.134;17.058;2023-12-22T09:32:55;7.30;12.00
2611;DHT22;5612;51.134;17.058;2023-12-22T09:35:24;7.80;1.00
2611;DHT22;5612;51.134;17.058;2023-12-22T09:37:54;7.90;1.00
2611;DHT22;5612;51.134;17.058;2023-12-22T09:40:22;7.50;1.00
2611;DHT22;5612;51.134;17.058;2023-12-22T09:42:54;7.80;1.00
2611;DHT22;5612;51.134;17.058;2023-12-22T09:45:24;7.50;1.00
2611;DHT22;5612;51.134;17.058;2023-12-22T09:47:54;7.90;1.00
2611;DHT22;5612;51.134;17.058;2023-12-22T09:50:23;7.00;1.00
2611;DHT22;5612;51.134;17.058;2023-12-22T09:52:52;6.30;97.90
2611;DHT22;5612;51.134;17.058;2023-12-22T09:55:22;5.80;99.90
2611;DHT22;5612;51.134;17.058;2023-12-22T09:57:53;5.30;99.90
2611;DHT22;5612;51.134;17.058;2023-12-22T10:00:23;5.20;99.90
2611;DHT22;5612;51.134;17.058;2023-12-22T10:02:52;5.20;99.90
2611;DHT22;5612;51.134;17.058;2023-12-22T10:05:21;5.10;1.00
2611;DHT22;5612;51.134;17.058;2023-12-22T10:07:50;5.00;99.90
2611;DHT22;5612;51.134;17.058;2023-12-22T10:10:20;5.00;99.90
2611;DHT22;5612;51.134;17.058;2023-12-22T10:12:54;4.90;99.90
2611;DHT22;5612;51.134;17.058;2023-12-22T10:15:23;5.10;1.00
2611;DHT22;5612;51.134;17.058;2023-12-22T10:17:52;5.70;99.90
2611;DHT22;5612;51.134;17.058;2023-12-22T10:20:21;5.80;99.90
2611;DHT22;5612;51.134;17.058;2023-12-22T10:22:50;5.70;99.90
2611;DHT22;5612;51.134;17.058;2023-12-22T10:25:22;5.90;99.90
2611;DHT22;5612;51.134;17.058;2023-12-22T10:27:59;6.50;52.80
2611;DHT22;5612;51.134;17.058;2023-12-22T10:30:29;6.50;11.40
2611;DHT22;5612;51.134;17.058;2023-12-22T10:32:59;6.20;17.70
2611;DHT22;5612;51.134;17.058;2023-12-22T10:35:32;5.90;15.10
2611;DHT22;5612;51.134;17.058;2023-12-22T10:38:01;5.80;51.00
2611;DHT22;5612;51.134;17.058;2023-12-22T10:40:30;6.40;1.00
2611;DHT22;5612;51.134;17.058;2023-12-22T10:43:01;6.40;5.30
2611;DHT22;5612;51.134;17.058;2023-12-22T10:45:32;6.70;1.00
2611;DHT22;5612;51.134;17.058;2023-12-22T10:48:01;6.50;1.00
2611;DHT22;5612;51.134;17.058;2023-12-22T10:50:32;5.90;1.00
2611;DHT22;5612;51.134;17.058;2023-12-22T10:53:02;5.70;1.00
2611;DHT22;5612;51.134;17.058;2023-12-22T10:55:34;6.30;1.00
2611;DHT22;5612;51.134;17.058;2023-12-22T10:58:05;6.50;1.00
2611;DHT22;5612;51.134;17.058;2023-12-22T11:00:36;6.10;1.00
2611;DHT22;5612;51.134;17.058;2023-12-22T11:03:08;5.70;1.00
2611;DHT22;5612;51.134;17.058;2023-12-22T11:05:44;5.60;1.00
2611;DHT22;5612;51.134;17.058;2023-12-22T11:08:13;5.30;1.00
2611;DHT22;5612;51.134;17.058;2023-12-22T11:10:49;5.10;1.00
2611;DHT22;5612;51.134;17.058;2023-12-22T11:13:25;5.00;23.50
2611;DHT22;5612;51.134;17.058;2023-12-22T11:15:57;5.00;15.90
2611;DHT22;5612;51.134;17.058;2023-12-22T11:18:26;5.00;99.20
2611;DHT22;5612;51.134;17.058;2023-12-22T11:20:56;5.00;45.80
2611;DHT22;5612;51.134;17.058;2023-12-22T11:23:28;5.00;36.10
2611;DHT22;5612;51.134;17.058;2023-12-22T11:26:00;4.90;44.60
2611;DHT22;5612;51.134;17.058;2023-12-22T11:28:32;5.10;98.70
2611;DHT22;5612;51.134;17.058;2023-12-22T11:31:02;5.30;86.30
2611;DHT22;5612;51.134;17.058;2023-12-22T11:33:33;5.80;53.70
2611;DHT22;5612;51.134;17.058;2023-12-22T11:36:04;7.00;1.00
2611;DHT22;5612;51.134;17.058;2023-12-22T11:38:37;7.20;1.00
2611;DHT22;5612;51.134;17.058;2023-12-22T11:41:09;7.70;1.00
2611;DHT22;5612;51.134;17.058;2023-12-22T11:43:40;7.60;1.00
2611;DHT22;5612;51.134;17.058;2023-12-22T11:46:09;7.70;1.00
2611;DHT22;5612;51.134;17.058;2023-12-22T11:48:38;8.30;1.00
2611;DHT22;5612;51.134;17.058;2023-12-22T11:51:17;8.30;1.00
2611;DHT22;5612;51.134;17.058;2023-12-22T11:53:47;7.50;1.00
2611;DHT22;5612;51.134;17.058;2023-12-22T11:56:16;6.70;1.00
2611;DHT22;5612;51.134;17.058;2023-12-22T11:58:52;6.10;1.00
2611;DHT22;5612;51.134;17.058;2023-12-22T12:01:23;6.20;1.00
2611;DHT22;5612;51.134;17.058;2023-12-22T12:03:54;6.20;1.00
2611;DHT22;5612;51.134;17.058;2023-12-22T12:06:32;6.60;1.00
2611;DHT22;5612;51.134;17.058;2023-12-22T12:09:04;6.80;1.00
2611;DHT22;5612;51.134;17.058;2023-12-22T12:12:11;7.40;1.00
2611;DHT22;5612;51.134;17.058;2023-12-22T12:14:43;7.70;1.00
2611;DHT22;5612;51.134;17.058;2023-12-22T12:17:15;8.30;1.00
2611;DHT22;5612;51.134;17.058;2023-12-22T12:19:47;9.20;1.00
2611;DHT22;5612;51.134;17.058;2023-12-22T12:22:17;9.10;1.00
2611;DHT22;5612;51.134;17.058;2023-12-22T12:24:46;7.90;1.00
2611;DHT22;5612;51.134;17.058;2023-12-22T12:27:19;7.40;1.00
2611;DHT22;5612;51.134;17.058;2023-12-22T12:29:50;7.10;1.00
2611;DHT22;5612;51.134;17.058;2023-12-22T12:32:23;6.60;1.00
2611;DHT22;5612;51.134;17.058;2023-12-22T12:34:53;6.40;1.00
2611;DHT22;5612;51.134;17.058;2023-12-22T12:37:24;6.70;1.00
2611;DHT22;5612;51.134;17.058;2023-12-22T12:39:57;6.70;1.00
2611;DHT22;5612;51.134;17.058;2023-12-22T12:42:29;6.90;1.00
2611;DHT22;5612;51.134;17.058;2023-12-22T12:44:59;7.10;1.00
2611;DHT22;5612;51.134;17.058;2023-12-22T12:47:28;6.70;1.00
2611;DHT22;5612;51.134;17.058;2023-12-22T12:49:58;6.50;1.00
2611;DHT22;5612;51.134;17.058;2023-12-22T12:52:28;6.80;1.00
2611;DHT22;5612;51.134;17.058;2023-12-22T12:54:57;7.20;1.00
2611;DHT22;5612;51.134;17.058;2023-12-22T12:57:28;7.60;1.00
2611;DHT22;5612;51.134;17.058;2023-12-22T12:59:56;7.60;1.00
2611;DHT22;5612;51.134;17.058;2023-12-22T13:02:27;7.60;1.00
2611;DHT22;5612;51.134;17.058;2023-12-22T13:04:56;7.60;1.00
2611;DHT22;5612;51.134;17.058;2023-12-22T13:07:25;8.10;1.00
2611;DHT22;5612;51.134;17.058;2023-12-22T13:09:54;7.80;1.00
2611;DHT22;5612;51.134;17.058;2023-12-22T13:12:24;7.40;1.00
2611;DHT22;5612;51.134;17.058;2023-12-22T13:14:54;7.30;1.00
2611;DHT22;5612;51.134;17.058;2023-12-22T13:17:23;7.20;1.00
2611;DHT22;5612;51.134;17.058;2023-12-22T13:19:53;7.00;1.00
2611;DHT22;5612;51.134;17.058;2023-12-22T13:22:22;7.00;1.00
2611;DHT22;5612;51.134;17.058;2023-12-22T13:24:56;6.80;1.00
2611;DHT22;5612;51.134;17.058;2023-12-22T13:27:25;6.70;1.00
2611;DHT22;5612;51.134;17.058;2023-12-22T13:29:54;6.70;1.00
2611;DHT22;5612;51.134;17.058;2023-12-22T13:32:23;6.60;1.00
2611;DHT22;5612;51.134;17.058;2023-12-22T13:34:55;6.70;1.00
2611;DHT22;5612;51.134;17.058;2023-12-22T13:37:25;6.60;1.00
2611;DHT22;5612;51.134;17.058;2023-12-22T13:39:58;6.40;1.00
2611;DHT22;5612;51.134;17.058;2023-12-22T13:42:27;6.30;1.00
2611;DHT22;5612;51.134;17.058;2023-12-22T13:44:57;6.10;1.00
2611;DHT22;5612;51.134;17.058;2023-12-22T13:47:27;5.80;1.00
2611;DHT22;5612;51.134;17.058;2023-12-22T13:49:58;5.80;1.00
2611;DHT22;5612;51.134;17.058;2023-12-22T13:52:28;5.80;1.00
2611;DHT22;5612;51.134;17.058;2023-12-22T13:55:00;5.70;1.00
2611;DHT22;5612;51.134;17.058;2023-12-22T13:57:30;5.50;1.00
2611;DHT22;5612;51.134;17.058;2023-12-22T14:00:00;5.40;1.00
2611;DHT22;5612;51.134;17.058;2023-12-22T14:02:29;5.20;1.00
2611;DHT22;5612;51.134;17.058;2023-12-22T14:04:59;5.30;1.00
2611;DHT22;5612;51.134;17.058;2023-12-22T14:07:28;5.20;1.00
2611;DHT22;5612;51.134;17.058;2023-12-22T14:09:57;5.20;1.00
2611;DHT22;5612;51.134;17.058;2023-12-22T14:12:26;5.30;1.00
2611;DHT22;5612;51.134;17.058;2023-12-22T14:14:58;5.40;1.00
2611;DHT22;5612;51.134;17.058;2023-12-22T14:17:27;5.50;1.00
2611;DHT22;5612;51.134;17.058;2023-12-22T14:20:00;5.60;1.00
2611;DHT22;5612;51.134;17.058;2023-12-22T14:22:29;5.50;1.00
2611;DHT22;5612;51.134;17.058;2023-12-22T14:24:58;5.30;1.00
2611;DHT22;5612;51.134;17.058;2023-12-22T14:27:26;5.30;1.00
2611;DHT22;5612;51.134;17.058;2023-12-22T14:29:55;5.30;1.00
2611;DHT22;5612;51.134;17.058;2023-12-22T14:32:24;5.20;1.00
2611;DHT22;5612;51.134;17.058;2023-12-22T14:34:52;5.20;1.00
2611;DHT22;5612;51.134;17.058;2023-12-22T14:37:23;5.10;1.00
2611;DHT22;5612;51.134;17.058;2023-12-22T14:39:52;5.00;1.00
2611;DHT22;5612;51.134;17.058;2023-12-22T14:42:20;5.00;1.00
2611;DHT22;5612;51.134;17.058;2023-12-22T14:44:50;4.90;1.00
2611;DHT22;5612;51.134;17.058;2023-12-22T14:47:19;4.90;1.00
2611;DHT22;5612;51.134;17.058;2023-12-22T14:49:48;4.80;1.00
2611;DHT22;5612;51.134;17.058;2023-12-22T14:52:16;4.70;1.00
2611;DHT22;5612;51.134;17.058;2023-12-22T14:54:47;4.70;1.00
2611;DHT22;5612;51.134;17.058;2023-12-22T14:57:15;4.70;1.00
2611;DHT22;5612;51.134;17.058;2023-12-22T14:59:46;4.60;1.00
2611;DHT22;5612;51.134;17.058;2023-12-22T15:02:14;4.50;1.00
2611;DHT22;5612;51.134;17.058;2023-12-22T15:04:45;4.40;1.00
2611;DHT22;5612;51.134;17.058;2023-12-22T15:07:15;4.40;1.00
2611;DHT22;5612;51.134;17.058;2023-12-22T15:09:46;4.40;1.00
2611;DHT22;5612;51.134;17.058;2023-12-22T15:12:16;4.30;1.00
2611;DHT22;5612;51.134;17.058;2023-12-22T15:14:44;4.20;1.00
2611;DHT22;5612;51.134;17.058;2023-12-22T15:17:14;4.20;1.00
2611;DHT22;5612;51.134;17.058;2023-12-22T15:19:44;4.20;1.00
2611;DHT22;5612;51.134;17.058;2023-12-22T15:22:13;4.20;1.00
2611;DHT22;5612;51.134;17.058;2023-12-22T15:24:42;4.20;1.00
2611;DHT22;5612;51.134;17.058;2023-12-22T15:27:12;4.10;1.00
2611;DHT22;5612;51.134;17.058;2023-12-22T15:29:41;4.10;1.00
2611;DHT22;5612;51.134;17.058;2023-12-22T15:32:10;4.20;1.00
2611;DHT22;5612;51.134;17.058;2023-12-22T15:34:41;4.10;1.00
2611;DHT22;5612;51.134;17.058;2023-12-22T15:37:11;4.10;1.00
2611;DHT22;5612;51.134;17.058;2023-12-22T15:39:40;4.10;1.00
2611;DHT22;5612;51.134;17.058;2023-12-22T15:42:09;4.00;1.00
2611;DHT22;5612;51.134;17.058;2023-12-22T15:44:42;3.90;1.00
2611;DHT22;5612;51.134;17.058;2023-12-22T15:47:11;3.90;1.00
2611;DHT22;5612;51.134;17.058;2023-12-22T15:49:40;3.80;1.00
2611;DHT22;5612;51.134;17.058;2023-12-22T15:52:09;3.70;13.00
2611;DHT22;5612;51.134;17.058;2023-12-22T15:54:38;3.70;38.00
2611;DHT22;5612;51.134;17.058;2023-12-22T15:57:07;3.60;99.90
2611;DHT22;5612;51.134;17.058;2023-12-22T15:59:36;3.70;99.90
2611;DHT22;5612;51.134;17.058;2023-12-22T16:02:07;3.70;99.90
2611;DHT22;5612;51.134;17.058;2023-12-22T16:04:36;3.70;99.90
2611;DHT22;5612;51.134;17.058;2023-12-22T16:07:05;3.70;99.90
2611;DHT22;5612;51.134;17.058;2023-12-22T16:09:34;3.70;99.90
2611;DHT22;5612;51.134;17.058;2023-12-22T16:12:05;3.80;99.90
2611;DHT22;5612;51.134;17.058;2023-12-22T16:14:35;3.80;99.90
2611;DHT22;5612;51.134;17.058;2023-12-22T16:17:06;3.80;99.90
2611;DHT22;5612;51.134;17.058;2023-12-22T16:19:37;3.80;99.90
2611;DHT22;5612;51.134;17.058;2023-12-22T16:22:08;3.90;99.90
2611;DHT22;5612;51.134;17.058;2023-12-22T16:24:37;3.80;99.90
2611;DHT22;5612;51.134;17.058;2023-12-22T16:27:07;3.80;99.90